Time;durP1;ratioP1;P1;durP2;ratioP2;P2;SDS_P1;SDS_P2;PMS_P1;PMS_P2;Temp;Humidity;BMP_temperature;BMP_pressure;BME280_temperature;BME280_humidity;BME280_pressure;Samples;Min_cycle;Max_cycle;Signal;HPM_P1;HPM_P2
2022/02/21 00:00:28;;;;;;;15.93;1.83;;;6.10;99.90;;;;;;5069375;28;20135;-68
2022/02/21 00:02:54;;;;;;;14.75;1.55;;;6.10;99.90;;;;;;5071360;28;20367;-68
2022/02/21 00:05:20;;;;;;;17.75;3.40;;;6.10;99.90;;;;;;5066381;28;20052;-68
2022/02/21 00:07:46;;;;;;;14.48;3.03;;;6.00;99.90;;;;;;5069906;28;20032;-68
2022/02/21 00:10:13;;;;;;;18.38;2.15;;;6.10;99.90;;;;;;5071209;28;20086;-68
2022/02/21 00:12:40;;;;;;;18.73;2.20;;;6.00;99.90;;;;;;5069584;28;20123;-68
2022/02/21 00:15:07;;;;;;;19.60;2.47;;;6.00;99.90;;;;;;5067915;28;20032;-68
2022/02/21 00:17:33;;;;;;;22.40;3.75;;;6.10;99.90;;;;;;5069203;28;20076;-68
2022/02/21 00:19:58;;;;;;;16.52;2.80;;;6.10;99.90;;;;;;5068445;28;20037;-69
2022/02/21 00:22:26;;;;;;;18.65;3.10;;;6.00;99.90;;;;;;5067044;28;20039;-68
2022/02/21 00:24:53;;;;;;;24.13;3.00;;;6.00;99.90;;;;;;5069169;28;20044;-68
2022/02/21 00:27:19;;;;;;;18.17;3.20;;;6.10;99.90;;;;;;5081200;28;20039;-68
2022/02/21 00:29:46;;;;;;;19.73;2.63;;;6.10;99.90;;;;;;5070418;28;20111;-68
2022/02/21 00:32:11;;;;;;;18.27;2.45;;;6.10;99.90;;;;;;5070651;28;20878;-68
2022/02/21 00:34:37;;;;;;;23.40;2.38;;;6.20;99.90;;;;;;5069428;28;20120;-68
2022/02/21 00:37:03;;;;;;;22.77;2.95;;;6.10;99.90;;;;;;5069904;28;20032;-68
2022/02/21 00:39:28;;;;;;;15.60;3.05;;;6.10;99.90;;;;;;5068461;28;20045;-68
2022/02/21 00:41:54;;;;;;;17.40;1.80;;;6.10;99.90;;;;;;5067398;28;20041;-68
2022/02/21 00:44:20;;;;;;;13.75;2.55;;;6.10;99.90;;;;;;5066538;28;20040;-68
2022/02/21 00:46:45;;;;;;;17.52;2.38;;;6.10;99.90;;;;;;5067672;28;20101;-68
2022/02/21 00:49:11;;;;;;;15.52;2.83;;;6.10;99.90;;;;;;5067023;28;20047;-67
2022/02/21 00:51:36;;;;;;;14.32;2.33;;;6.10;99.90;;;;;;5067694;28;20097;-68
2022/02/21 00:54:02;;;;;;;12.60;1.95;;;6.10;99.90;;;;;;5069007;28;20040;-67
2022/02/21 00:56:27;;;;;;;13.50;1.88;;;6.10;99.90;;;;;;5066796;28;20051;-67
2022/02/21 00:58:53;;;;;;;18.20;2.95;;;6.00;99.90;;;;;;5069062;28;20410;-67
2022/02/21 01:01:18;;;;;;;13.32;2.40;;;6.00;99.90;;;;;;5070192;28;20044;-67
2022/02/21 01:03:44;;;;;;;17.67;2.17;;;6.00;99.90;;;;;;5064296;28;20044;-68
2022/02/21 01:06:11;;;;;;;20.38;1.95;;;5.90;99.90;;;;;;5069866;28;20040;-67
2022/02/21 01:08:37;;;;;;;17.50;2.45;;;5.90;99.90;;;;;;5067792;28;20124;-67
2022/02/21 01:11:02;;;;;;;17.95;3.15;;;6.00;99.90;;;;;;5075895;28;20119;-67
2022/02/21 01:13:28;;;;;;;18.42;2.42;;;5.90;99.90;;;;;;5076417;28;20403;-67
2022/02/21 01:15:53;;;;;;;18.77;3.30;;;6.00;99.90;;;;;;5069372;28;20041;-67
2022/02/21 01:18:21;;;;;;;16.38;2.85;;;6.00;99.90;;;;;;5066299;28;20149;-68
2022/02/21 01:20:47;;;;;;;20.55;2.83;;;6.00;99.90;;;;;;5068135;28;20130;-68
2022/02/21 01:23:13;;;;;;;19.50;2.80;;;5.90;99.90;;;;;;5063722;28;20037;-68
2022/02/21 01:25:39;;;;;;;13.25;3.20;;;5.90;99.90;;;;;;5069095;28;20035;-67
2022/02/21 01:28:05;;;;;;;15.90;3.05;;;5.90;99.90;;;;;;5073113;28;20044;-68
2022/02/21 01:30:30;;;;;;;23.98;3.35;;;5.90;99.90;;;;;;5073092;28;20050;-67
2022/02/21 01:32:56;;;;;;;18.27;2.88;;;5.90;99.90;;;;;;5073268;28;20040;-68
2022/02/21 01:35:22;;;;;;;17.67;3.35;;;5.90;99.90;;;;;;5072850;28;20085;-68
2022/02/21 01:37:47;;;;;;;25.45;4.35;;;5.90;99.90;;;;;;5073369;28;20094;-68
2022/02/21 01:40:13;;;;;;;24.98;4.82;;;5.80;99.90;;;;;;5073735;28;20039;-68
2022/02/21 01:42:39;;;;;;;16.33;4.00;;;5.90;99.90;;;;;;5073482;28;20552;-68
2022/02/21 01:45:06;;;;;;;20.85;5.07;;;5.80;99.90;;;;;;5073759;28;20033;-67
2022/02/21 01:47:32;;;;;;;22.08;2.90;;;5.80;99.90;;;;;;5069708;28;20040;-68
2022/02/21 01:49:58;;;;;;;26.58;4.90;;;5.90;99.90;;;;;;5065929;28;20056;-68
2022/02/21 01:52:23;;;;;;;19.15;3.50;;;5.80;99.90;;;;;;5072972;28;20029;-67
2022/02/21 01:54:50;;;;;;;25.98;4.35;;;5.90;99.90;;;;;;5073985;28;20045;-68
2022/02/21 01:57:16;;;;;;;22.52;3.78;;;5.90;99.90;;;;;;5056795;28;20040;-67
2022/02/21 01:59:42;;;;;;;18.05;4.15;;;5.80;99.90;;;;;;5073756;28;20041;-68
2022/02/21 02:02:08;;;;;;;18.90;3.00;;;5.80;99.90;;;;;;5077709;28;20040;-68
2022/02/21 02:04:35;;;;;;;23.23;3.85;;;5.80;99.90;;;;;;5068752;28;20032;-68
2022/02/21 02:07:03;;;;;;;19.55;3.50;;;5.80;99.90;;;;;;5103436;28;20040;-68
2022/02/21 02:09:29;;;;;;;25.27;4.38;;;5.80;99.90;;;;;;5070663;28;20055;-67
2022/02/21 02:11:54;;;;;;;22.25;3.35;;;5.80;99.90;;;;;;5073294;28;20074;-67
2022/02/21 02:14:35;;;;;;;23.67;3.20;;;5.80;99.90;;;;;;5071994;28;20510;-68
2022/02/21 02:17:03;;;;;;;23.98;3.72;;;5.80;99.90;;;;;;5072757;28;20047;-68
2022/02/21 02:19:29;;;;;;;26.27;4.43;;;5.70;99.90;;;;;;5070225;28;20093;-67
2022/02/21 02:21:55;;;;;;;27.60;4.57;;;5.70;99.90;;;;;;5071871;28;20115;-68
2022/02/21 02:24:22;;;;;;;23.83;4.47;;;5.60;99.90;;;;;;5070836;28;20135;-68
2022/02/21 02:26:52;;;;;;;20.30;3.03;;;5.60;99.90;;;;;;5072978;28;20037;-68
2022/02/21 02:29:17;;;;;;;24.23;2.97;;;5.60;99.90;;;;;;5073081;28;20486;-68
2022/02/21 02:31:43;;;;;;;19.00;2.88;;;5.60;99.90;;;;;;5071332;28;20123;-68
2022/02/21 02:34:08;;;;;;;18.25;3.50;;;5.60;99.90;;;;;;5072097;28;20040;-68
2022/02/21 02:36:34;;;;;;;22.23;4.07;;;5.60;99.90;;;;;;5068315;28;20040;-67
2022/02/21 02:38:59;;;;;;;18.52;2.80;;;5.60;99.90;;;;;;5070668;28;20048;-68
2022/02/21 02:41:25;;;;;;;25.75;5.05;;;5.50;99.90;;;;;;5070004;28;20074;-69
2022/02/21 02:43:50;;;;;;;16.63;3.47;;;5.50;99.90;;;;;;5071219;28;20053;-68
2022/02/21 02:46:16;;;;;;;17.80;3.03;;;5.40;99.90;;;;;;5068797;28;20641;-68
2022/02/21 02:48:42;;;;;;;27.42;3.60;;;5.40;99.90;;;;;;5072355;28;20148;-68
2022/02/21 02:51:07;;;;;;;18.88;3.65;;;5.30;99.90;;;;;;5070784;28;20052;-68
2022/02/21 02:53:33;;;;;;;20.58;2.85;;;5.40;99.90;;;;;;5066816;28;20048;-68
2022/02/21 02:55:58;;;;;;;16.00;2.78;;;5.30;99.90;;;;;;5071262;28;20119;-69
2022/02/21 02:58:24;;;;;;;14.60;2.28;;;5.30;99.90;;;;;;5078038;28;20041;-68
2022/02/21 03:00:51;;;;;;;16.42;2.60;;;5.30;99.90;;;;;;5079301;28;20086;-68
2022/02/21 03:03:17;;;;;;;20.20;5.03;;;5.30;99.90;;;;;;5072349;28;20039;-68
2022/02/21 03:05:43;;;;;;;19.98;3.30;;;5.30;99.90;;;;;;5072266;28;20045;-69
2022/02/21 03:08:08;;;;;;;17.85;3.45;;;5.40;99.90;;;;;;5071443;28;20037;-68
2022/02/21 03:10:34;;;;;;;13.82;2.95;;;5.30;99.90;;;;;;5075171;28;20041;-68
2022/02/21 03:13:00;;;;;;;15.00;2.45;;;5.30;99.90;;;;;;5070775;28;20041;-69
2022/02/21 03:15:25;;;;;;;14.35;2.92;;;5.10;99.90;;;;;;5071118;28;20032;-67
2022/02/21 03:17:52;;;;;;;11.00;1.77;;;5.00;99.90;;;;;;5060792;28;20067;-68
2022/02/21 03:20:17;;;;;;;13.82;2.80;;;4.90;99.90;;;;;;5071238;28;20368;-68
2022/02/21 03:22:44;;;;;;;19.08;2.63;;;4.80;99.90;;;;;;5070096;28;20120;-69
2022/02/21 03:25:12;;;;;;;19.10;3.42;;;4.70;99.90;;;;;;5099826;28;20083;-68
2022/02/21 03:27:43;;;;;;;22.05;3.20;;;4.70;99.90;;;;;;5070187;28;20037;-68
2022/02/21 03:30:09;;;;;;;21.25;2.88;;;4.70;99.90;;;;;;5071878;28;20066;-68
2022/02/21 03:32:35;;;;;;;22.70;2.80;;;4.60;99.90;;;;;;5070993;28;20036;-68
2022/02/21 03:35:00;;;;;;;14.30;2.97;;;4.60;99.90;;;;;;5069588;28;20044;-68
2022/02/21 03:37:26;;;;;;;23.23;4.68;;;4.60;99.90;;;;;;5069566;28;20119;-68
2022/02/21 03:39:52;;;;;;;22.08;3.55;;;4.60;99.90;;;;;;5069169;28;20064;-68
2022/02/21 03:42:17;;;;;;;21.90;2.83;;;4.70;99.90;;;;;;5071166;28;20474;-68
2022/02/21 03:44:43;;;;;;;18.42;2.85;;;4.70;99.90;;;;;;5070650;28;20048;-68
2022/02/21 03:47:09;;;;;;;21.88;3.80;;;4.70;99.90;;;;;;5069557;28;20040;-68
2022/02/21 03:49:34;;;;;;;19.30;3.10;;;4.70;99.90;;;;;;5069659;28;20094;-68
2022/02/21 03:52:00;;;;;;;22.58;3.42;;;4.70;99.90;;;;;;5088616;28;20047;-68
2022/02/21 03:54:26;;;;;;;24.27;3.55;;;4.70;99.90;;;;;;5070729;28;20046;-68
2022/02/21 03:56:51;;;;;;;22.45;4.35;;;4.70;99.90;;;;;;5069015;28;20079;-68
2022/02/21 03:59:17;;;;;;;28.35;4.43;;;4.80;99.90;;;;;;5075222;28;20044;-68
2022/02/21 04:01:42;;;;;;;16.05;2.83;;;4.80;99.90;;;;;;5081021;28;20115;-66
2022/02/21 04:04:08;;;;;;;16.52;2.75;;;4.80;99.90;;;;;;5070865;28;20364;-68
2022/02/21 04:06:34;;;;;;;18.90;2.90;;;4.90;99.90;;;;;;5068857;28;20151;-68
2022/02/21 04:08:59;;;;;;;20.55;3.60;;;4.80;99.90;;;;;;5045909;28;20082;-67
2022/02/21 04:11:25;;;;;;;21.27;2.42;;;4.90;99.90;;;;;;5078006;28;20437;-67
2022/02/21 04:13:50;;;;;;;19.35;3.53;;;4.90;99.90;;;;;;5070233;28;20058;-68
2022/02/21 04:16:16;;;;;;;19.50;2.97;;;4.80;99.90;;;;;;5070380;28;20124;-68
2022/02/21 04:18:41;;;;;;;18.90;3.75;;;4.80;99.90;;;;;;5069187;28;20085;-68
2022/02/21 04:21:07;;;;;;;21.70;3.95;;;4.80;99.90;;;;;;5069220;28;20060;-68
2022/02/21 04:23:33;;;;;;;15.63;3.28;;;4.80;99.90;;;;;;5068449;28;20037;-68
2022/02/21 04:25:58;;;;;;;22.60;3.58;;;4.80;99.90;;;;;;5069314;28;20040;-68
2022/02/21 04:28:24;;;;;;;16.25;3.33;;;4.70;99.90;;;;;;5068842;28;20041;-68
2022/02/21 04:30:49;;;;;;;22.17;3.90;;;4.80;99.90;;;;;;5052502;28;20040;-68
2022/02/21 04:33:15;;;;;;;19.83;4.43;;;4.70;99.90;;;;;;5069361;28;20076;-68
2022/02/21 04:35:41;;;;;;;16.83;2.95;;;4.70;99.90;;;;;;5070635;28;20047;-68
2022/02/21 04:38:06;;;;;;;18.17;3.10;;;4.60;99.90;;;;;;5069256;28;20048;-68
2022/02/21 04:40:32;;;;;;;13.40;2.65;;;4.60;99.90;;;;;;5069149;28;20065;-68
2022/02/21 04:42:57;;;;;;;20.13;4.70;;;4.60;99.90;;;;;;5069845;28;20036;-68
2022/02/21 04:45:24;;;;;;;13.10;2.55;;;4.60;99.90;;;;;;5068539;28;20040;-68
2022/02/21 04:47:50;;;;;;;20.10;4.35;;;4.60;99.90;;;;;;5070462;28;20430;-69
2022/02/21 04:50:17;;;;;;;30.05;4.15;;;4.70;99.90;;;;;;5069871;28;20098;-69
2022/02/21 04:52:44;;;;;;;19.15;2.90;;;4.70;99.90;;;;;;5069625;28;20502;-69
2022/02/21 04:55:11;;;;;;;18.77;2.70;;;4.70;99.90;;;;;;5070230;28;20127;-68
2022/02/21 04:57:38;;;;;;;18.33;2.88;;;4.70;99.90;;;;;;5070331;28;20032;-68
2022/02/21 05:00:06;;;;;;;15.75;2.55;;;4.70;99.90;;;;;;5068308;28;20400;-69
2022/02/21 05:02:32;;;;;;;21.00;3.25;;;4.70;99.90;;;;;;5068742;28;20036;-69
2022/02/21 05:04:57;;;;;;;19.55;2.75;;;4.70;99.90;;;;;;5069444;28;20051;-69
2022/02/21 05:07:23;;;;;;;12.93;2.08;;;4.80;99.90;;;;;;5067304;28;20041;-68
2022/02/21 05:09:48;;;;;;;16.42;2.80;;;4.80;99.90;;;;;;5067596;28;20123;-68
2022/02/21 05:12:14;;;;;;;15.90;2.40;;;4.90;99.90;;;;;;5069742;28;20111;-68
2022/02/21 05:14:40;;;;;;;19.35;2.83;;;4.90;99.90;;;;;;5072252;28;20044;-68
2022/02/21 05:17:06;;;;;;;12.93;2.63;;;4.90;99.90;;;;;;5068964;28;20097;-68
2022/02/21 05:19:32;;;;;;;19.10;3.13;;;4.90;99.90;;;;;;5069480;28;20055;-68
2022/02/21 05:21:57;;;;;;;14.52;3.55;;;4.90;99.90;;;;;;5069234;28;20036;-68
2022/02/21 05:24:23;;;;;;;17.63;3.78;;;4.90;99.90;;;;;;5069266;28;20040;-68
2022/02/21 05:26:48;;;;;;;19.88;3.17;;;5.00;99.90;;;;;;5069016;28;20407;-68
2022/02/21 05:29:14;;;;;;;9.15;1.98;;;5.00;99.90;;;;;;5070003;28;20067;-67
2022/02/21 05:31:40;;;;;;;14.65;2.42;;;5.00;99.90;;;;;;5073097;28;20123;-68
2022/02/21 05:34:06;;;;;;;19.48;3.70;;;5.20;99.90;;;;;;5068191;28;20036;-67
2022/02/21 05:36:31;;;;;;;13.02;1.83;;;5.00;99.90;;;;;;5070109;28;20028;-67
2022/02/21 05:38:57;;;;;;;20.60;3.40;;;5.00;99.90;;;;;;5068831;28;20053;-67
2022/02/21 05:41:22;;;;;;;15.02;2.70;;;5.00;99.90;;;;;;5067976;28;20028;-67
2022/02/21 05:43:48;;;;;;;12.52;3.05;;;5.00;99.90;;;;;;5068285;28;20037;-67
2022/02/21 05:46:14;;;;;;;16.58;2.20;;;5.00;99.90;;;;;;5067366;28;20040;-68
2022/02/21 05:48:39;;;;;;;15.90;2.72;;;5.00;99.90;;;;;;5065286;28;20032;-68
2022/02/21 05:51:06;;;;;;;12.30;2.20;;;5.00;99.90;;;;;;5051351;28;20154;-67
2022/02/21 05:53:31;;;;;;;21.73;3.40;;;5.00;99.90;;;;;;5069559;28;20717;-67
2022/02/21 05:55:57;;;;;;;14.10;3.30;;;5.10;99.90;;;;;;5069726;28;20040;-67
2022/02/21 05:58:22;;;;;;;18.05;3.10;;;5.10;99.90;;;;;;5065821;28;20036;-67
2022/02/21 06:00:51;;;;;;;19.40;2.45;;;5.00;99.90;;;;;;5066929;28;20035;-67
2022/02/21 06:03:17;;;;;;;19.45;2.85;;;5.10;99.90;;;;;;5061702;28;20253;-68
2022/02/21 06:05:46;;;;;;;12.73;3.05;;;5.10;99.90;;;;;;5067640;28;20123;-67
2022/02/21 06:08:14;;;;;;;16.63;3.35;;;5.10;99.90;;;;;;5066214;28;20048;-67
2022/02/21 06:10:40;;;;;;;15.35;2.33;;;5.10;99.90;;;;;;5066486;28;20178;-67
2022/02/21 06:13:06;;;;;;;12.50;2.22;;;5.10;99.90;;;;;;5069890;28;20123;-67
2022/02/21 06:15:31;;;;;;;19.35;3.10;;;5.00;99.90;;;;;;5100830;28;20056;-67
2022/02/21 06:17:58;;;;;;;13.85;3.20;;;5.10;99.90;;;;;;5072810;28;20032;-67
2022/02/21 06:20:25;;;;;;;16.48;2.70;;;5.10;99.90;;;;;;5071717;28;20097;-67
2022/02/21 06:22:50;;;;;;;19.67;3.55;;;5.10;99.90;;;;;;5071661;28;20036;-67
2022/02/21 06:25:16;;;;;;;13.65;2.60;;;5.10;99.90;;;;;;5071664;28;20111;-68
2022/02/21 06:27:42;;;;;;;16.35;2.58;;;5.10;99.90;;;;;;5070457;28;20033;-68
2022/02/21 06:30:09;;;;;;;14.43;3.45;;;5.20;99.90;;;;;;5067534;28;20062;-68
2022/02/21 06:32:35;;;;;;;20.17;2.63;;;5.20;99.90;;;;;;5071250;28;20047;-68
2022/02/21 06:35:01;;;;;;;19.77;2.75;;;5.20;99.90;;;;;;5066999;28;20064;-68
2022/02/21 06:37:26;;;;;;;27.58;4.47;;;5.20;99.90;;;;;;5069296;28;20103;-68
2022/02/21 06:39:52;;;;;;;21.70;3.17;;;5.10;99.90;;;;;;5063749;28;20043;-68
2022/02/21 06:42:17;;;;;;;19.23;3.13;;;5.10;99.90;;;;;;5068341;28;20044;-68
2022/02/21 06:44:43;;;;;;;14.35;2.80;;;5.10;99.90;;;;;;5102374;28;20050;-68
2022/02/21 06:47:09;;;;;;;13.07;3.00;;;5.10;99.90;;;;;;5068675;28;20115;-68
2022/02/21 06:49:34;;;;;;;18.20;2.92;;;5.10;99.90;;;;;;5067441;28;20048;-68
2022/02/21 06:52:00;;;;;;;21.70;3.28;;;5.10;99.90;;;;;;5069717;28;20082;-68
2022/02/21 06:54:26;;;;;;;19.85;3.15;;;5.10;99.90;;;;;;5070190;28;20037;-68
2022/02/21 06:56:51;;;;;;;20.38;2.65;;;5.10;99.90;;;;;;5069476;28;20045;-68
2022/02/21 06:59:17;;;;;;;18.10;3.78;;;5.20;99.90;;;;;;5070337;28;20044;-68
2022/02/21 07:01:42;;;;;;;18.50;3.70;;;5.20;99.90;;;;;;5071399;28;20033;-68
2022/02/21 07:04:08;;;;;;;26.10;4.03;;;5.20;99.90;;;;;;5067360;28;20059;-68
2022/02/21 07:06:35;;;;;;;23.27;2.95;;;5.20;99.90;;;;;;5067257;28;20043;-68
2022/02/21 07:09:03;;;;;;;17.63;3.30;;;5.20;99.90;;;;;;5065547;28;20064;-68
2022/02/21 07:11:29;;;;;;;18.83;2.88;;;5.20;99.90;;;;;;5073510;28;20070;-68
2022/02/21 07:13:54;;;;;;;16.38;2.67;;;5.20;99.90;;;;;;5066390;28;20083;-68
2022/02/21 07:16:20;;;;;;;20.85;4.30;;;5.20;99.90;;;;;;5068467;28;20437;-68
2022/02/21 07:18:46;;;;;;;17.65;3.65;;;5.20;99.90;;;;;;5067839;28;20060;-69
2022/02/21 07:21:11;;;;;;;18.10;3.05;;;5.20;99.90;;;;;;5084594;28;20063;-68
2022/02/21 07:23:37;;;;;;;18.20;3.22;;;5.20;99.90;;;;;;5068266;28;20431;-68
2022/02/21 07:26:04;;;;;;;17.88;2.88;;;5.20;99.90;;;;;;5067354;28;20033;-68
2022/02/21 07:28:31;;;;;;;21.02;4.20;;;5.20;99.90;;;;;;5068172;28;20048;-68
2022/02/21 07:30:57;;;;;;;17.58;3.75;;;5.20;99.90;;;;;;5065528;28;20048;-68
2022/02/21 07:33:22;;;;;;;27.95;3.50;;;5.20;99.90;;;;;;5067694;28;20036;-68
2022/02/21 07:35:48;;;;;;;29.40;3.40;;;5.20;99.90;;;;;;5068555;28;20437;-68
2022/02/21 07:38:14;;;;;;;20.05;3.45;;;5.20;99.90;;;;;;5052377;28;20047;-68
2022/02/21 07:40:39;;;;;;;20.13;3.58;;;5.20;99.90;;;;;;5068224;28;20045;-68
2022/02/21 07:43:05;;;;;;;25.88;3.97;;;5.30;99.90;;;;;;5068097;28;20045;-68
2022/02/21 07:45:31;;;;;;;27.00;3.70;;;5.30;99.90;;;;;;5064076;28;20080;-68
2022/02/21 07:48:00;;;;;;;17.95;3.28;;;5.30;99.90;;;;;;5063866;28;20036;-68
2022/02/21 07:50:30;;;;;;;21.63;5.25;;;5.20;99.90;;;;;;5066567;28;20371;-68
2022/02/21 07:52:57;;;;;;;18.10;3.67;;;5.30;99.90;;;;;;5068333;28;20091;-68
2022/02/21 07:55:24;;;;;;;22.15;3.45;;;5.30;99.90;;;;;;5068525;28;20028;-68
2022/02/21 07:57:50;;;;;;;18.45;4.22;;;5.30;99.90;;;;;;5063698;28;20037;-68
2022/02/21 08:00:17;;;;;;;24.70;3.75;;;5.30;99.90;;;;;;5063380;28;20079;-68
2022/02/21 08:02:43;;;;;;;22.63;3.25;;;5.40;99.90;;;;;;5064328;28;20955;-68
2022/02/21 08:05:09;;;;;;;25.33;3.78;;;5.40;99.90;;;;;;5064711;28;20173;-68
2022/02/21 08:07:35;;;;;;;18.63;3.90;;;5.50;99.90;;;;;;5065449;28;20052;-68
2022/02/21 08:10:01;;;;;;;24.73;4.13;;;5.40;99.90;;;;;;5064801;28;20044;-68
2022/02/21 08:12:27;;;;;;;19.05;4.18;;;5.50;99.90;;;;;;5066586;28;20045;-68
2022/02/21 08:14:53;;;;;;;21.27;3.83;;;5.50;99.90;;;;;;5066422;28;20105;-68
2022/02/21 08:17:18;;;;;;;14.80;2.80;;;5.50;99.90;;;;;;5063084;28;20028;-69
2022/02/21 08:19:44;;;;;;;17.92;3.65;;;5.50;99.90;;;;;;5067067;28;20041;-68
2022/02/21 08:22:10;;;;;;;27.60;3.80;;;5.50;99.90;;;;;;5061853;28;20055;-68
2022/02/21 08:24:36;;;;;;;19.88;3.08;;;5.50;99.90;;;;;;5066919;28;20067;-69
2022/02/21 08:27:04;;;;;;;20.02;3.85;;;5.50;99.90;;;;;;5097960;28;20087;-68
2022/02/21 08:29:32;;;;;;;18.92;3.33;;;5.40;99.90;;;;;;5060869;28;20040;-68
2022/02/21 08:31:59;;;;;;;24.85;4.35;;;5.30;99.90;;;;;;5084558;28;20048;-68
2022/02/21 08:34:27;;;;;;;20.98;3.67;;;5.30;99.90;;;;;;5096220;28;20047;-68
2022/02/21 08:36:53;;;;;;;17.48;3.13;;;5.20;99.90;;;;;;5063360;28;20105;-68
2022/02/21 08:39:19;;;;;;;17.00;3.17;;;5.10;99.90;;;;;;5067478;28;20083;-68
2022/02/21 08:41:45;;;;;;;21.08;2.92;;;5.00;99.90;;;;;;5066013;28;20067;-68
2022/02/21 08:44:11;;;;;;;21.67;4.28;;;4.90;99.90;;;;;;5065840;28;20082;-68
2022/02/21 08:46:37;;;;;;;13.90;2.90;;;4.90;99.90;;;;;;5065949;28;20460;-68
2022/02/21 08:49:05;;;;;;;24.83;2.90;;;4.80;99.90;;;;;;5067005;28;20101;-68
2022/02/21 08:51:30;;;;;;;29.15;3.97;;;4.70;99.90;;;;;;5069053;28;20127;-68
2022/02/21 08:53:56;;;;;;;18.75;3.03;;;4.70;99.90;;;;;;5065731;28;20123;-68
2022/02/21 08:56:22;;;;;;;9.88;2.03;;;4.60;99.90;;;;;;5068370;28;20128;-68
2022/02/21 08:58:48;;;;;;;11.25;1.88;;;4.50;99.90;;;;;;5064740;28;20125;-69
2022/02/21 09:01:14;;;;;;;7.65;1.42;;;4.40;99.90;;;;;;5068534;28;20032;-68
2022/02/21 09:03:41;;;;;;;9.52;2.25;;;4.20;99.90;;;;;;5064783;28;20037;-68
2022/02/21 09:06:08;;;;;;;8.00;1.83;;;4.10;99.90;;;;;;5065392;28;20036;-68
2022/02/21 09:08:34;;;;;;;6.25;1.00;;;3.90;99.90;;;;;;5067416;28;20037;-67
2022/02/21 09:11:00;;;;;;;6.65;1.10;;;3.90;99.90;;;;;;5064684;28;20098;-67
2022/02/21 09:13:26;;;;;;;5.80;0.90;;;3.70;99.90;;;;;;5063720;28;20077;-68
2022/02/21 09:15:51;;;;;;;6.32;1.13;;;3.60;99.90;;;;;;5062124;28;20131;-67
2022/02/21 09:18:17;;;;;;;8.55;0.93;;;3.50;99.90;;;;;;5062802;28;20799;-67
2022/02/21 09:20:43;;;;;;;9.38;0.90;;;3.50;99.90;;;;;;5065348;28;20503;-68
2022/02/21 09:23:09;;;;;;;4.68;0.60;;;3.50;99.90;;;;;;5066442;28;20064;-68
2022/02/21 09:25:35;;;;;;;5.50;0.43;;;3.40;99.90;;;;;;5060767;28;20041;-67
2022/02/21 09:28:01;;;;;;;5.20;0.65;;;3.40;99.90;;;;;;5063810;28;20545;-68
2022/02/21 09:30:26;;;;;;;7.18;0.50;;;3.40;99.90;;;;;;5064123;28;20036;-68
2022/02/21 09:32:52;;;;;;;5.75;0.45;;;3.40;99.90;;;;;;5064204;28;20036;-67
2022/02/21 09:35:20;;;;;;;5.85;1.10;;;3.40;99.90;;;;;;5064507;28;20679;-68
2022/02/21 09:37:45;;;;;;;5.68;0.70;;;3.30;99.90;;;;;;5063005;28;20051;-67
2022/02/21 09:40:13;;;;;;;5.82;0.98;;;3.20;99.90;;;;;;5066764;28;20531;-68
2022/02/21 09:42:39;;;;;;;8.88;1.13;;;3.10;99.90;;;;;;5067189;28;20044;-68
2022/02/21 09:45:06;;;;;;;5.18;0.82;;;3.10;99.90;;;;;;5064600;28;20127;-67
2022/02/21 09:47:33;;;;;;;5.82;1.13;;;3.10;99.90;;;;;;5068241;28;20054;-68
2022/02/21 09:49:59;;;;;;;11.80;0.98;;;3.00;99.90;;;;;;5072133;28;20089;-68
2022/02/21 09:52:26;;;;;;;5.97;0.90;;;3.00;99.90;;;;;;5074943;28;20084;-68
2022/02/21 09:54:52;;;;;;;7.53;0.95;;;3.00;99.90;;;;;;5070540;28;20062;-68
2022/02/21 09:57:18;;;;;;;10.30;1.10;;;3.00;99.90;;;;;;5068092;28;20040;-68
2022/02/21 09:59:44;;;;;;;7.85;0.73;;;3.10;99.90;;;;;;5068181;28;20067;-68
2022/02/21 10:02:29;;;;;;;9.15;1.00;;;3.00;99.90;;;;;;5066157;28;20071;-68
2022/02/21 10:05:13;;;;;;;6.18;0.50;;;3.00;99.90;;;;;;5070571;28;21688;-68
2022/02/21 10:07:39;;;;;;;4.93;0.80;;;3.00;99.90;;;;;;5069137;28;20068;-68
2022/02/21 10:10:06;;;;;;;5.47;0.68;;;3.00;99.90;;;;;;5070952;28;20036;-67
2022/02/21 10:12:44;;;;;;;6.25;0.90;;;3.00;99.90;;;;;;5065542;28;20040;-68
2022/02/21 10:15:16;;;;;;;4.95;1.13;;;3.00;99.90;;;;;;5071175;28;20044;-68
2022/02/21 10:17:41;;;;;;;6.70;0.90;;;3.00;99.90;;;;;;5068057;28;20067;-67
2022/02/21 10:20:09;;;;;;;6.38;1.52;;;3.00;99.90;;;;;;5068665;28;20036;-67
2022/02/21 10:22:35;;;;;;;5.43;0.57;;;3.00;99.90;;;;;;5068164;28;20064;-68
2022/02/21 10:25:13;;;;;;;6.70;0.70;;;3.10;99.90;;;;;;5071025;28;20029;-68
2022/02/21 10:27:39;;;;;;;2.90;0.50;;;3.10;99.90;;;;;;5073087;28;20375;-68
2022/02/21 10:30:07;;;;;;;7.03;0.77;;;3.00;99.90;;;;;;5070420;28;20041;-68
2022/02/21 10:32:35;;;;;;;4.25;0.65;;;3.00;99.90;;;;;;5069646;28;20050;-68
2022/02/21 10:35:16;;;;;;;4.82;1.10;;;3.00;99.90;;;;;;5067275;28;20428;-68
2022/02/21 10:37:48;;;;;;;6.70;2.13;;;3.10;99.90;;;;;;5069740;28;20044;-68
2022/02/21 10:40:19;;;;;;;7.30;0.95;;;3.10;99.90;;;;;;5069568;28;20040;-68
2022/02/21 10:43:00;;;;;;;3.45;0.70;;;3.20;99.90;;;;;;5068267;28;20478;-68
2022/02/21 10:45:28;;;;;;;7.32;1.38;;;3.20;99.90;;;;;;5069342;28;20086;-68
2022/02/21 10:48:20;;;;;;;9.40;1.45;;;3.20;99.90;;;;;;5066670;28;20044;-68
2022/02/21 10:51:01;;;;;;;6.97;0.98;;;3.10;99.90;;;;;;5069088;28;20045;-68
2022/02/21 10:53:38;;;;;;;8.13;1.30;;;3.10;99.90;;;;;;5069499;28;20048;-68
2022/02/21 10:56:04;;;;;;;8.25;1.15;;;3.20;99.90;;;;;;5069808;28;20071;-68
2022/02/21 10:58:29;;;;;;;9.55;1.13;;;3.20;99.90;;;;;;5069289;28;20069;-67
2022/02/21 11:00:56;;;;;;;10.20;1.52;;;3.20;99.90;;;;;;5070170;28;20033;-68
2022/02/21 11:03:27;;;;;;;12.73;1.63;;;3.30;99.90;;;;;;5067770;28;20506;-68
2022/02/21 11:05:55;;;;;;;10.00;1.63;;;3.30;99.90;;;;;;5069597;28;20033;-68
2022/02/21 11:08:21;;;;;;;19.73;2.15;;;3.40;99.90;;;;;;5068020;28;20067;-68
2022/02/21 11:10:56;;;;;;;9.88;1.83;;;3.40;99.90;;;;;;5068157;28;20076;-68
2022/02/21 11:13:21;;;;;;;15.85;1.70;;;3.50;99.90;;;;;;5069483;28;20566;-68
2022/02/21 11:15:52;;;;;;;12.90;2.17;;;3.60;99.90;;;;;;5068203;28;20112;-68
2022/02/21 11:18:18;;;;;;;11.15;2.53;;;3.70;99.90;;;;;;5067954;28;20067;-68
2022/02/21 11:20:46;;;;;;;10.52;2.80;;;3.80;99.90;;;;;;5063761;28;20040;-68
2022/02/21 11:23:12;;;;;;;17.08;2.15;;;3.90;99.90;;;;;;5065864;28;20040;-68
2022/02/21 11:25:59;;;;;;;18.08;2.70;;;4.00;99.90;;;;;;5067322;28;20037;-68
2022/02/21 11:28:42;;;;;;;18.88;2.85;;;4.10;99.90;;;;;;5068284;28;20032;-68
2022/02/21 11:31:08;;;;;;;21.20;3.75;;;4.30;99.90;;;;;;5064241;28;20114;-68
2022/02/21 11:33:57;;;;;;;31.63;3.88;;;4.40;99.90;;;;;;5069587;28;20042;-68
2022/02/21 11:36:23;;;;;;;23.98;3.75;;;4.60;99.90;;;;;;5063232;28;20051;-68
2022/02/21 11:38:49;;;;;;;25.88;5.00;;;4.60;99.90;;;;;;5066998;28;20036;-68
2022/02/21 11:41:15;;;;;;;28.98;4.43;;;4.70;99.90;;;;;;5064694;28;20502;-67
2022/02/21 11:43:43;;;;;;;29.90;4.07;;;4.90;99.90;;;;;;5065939;28;20035;-67
2022/02/21 11:46:29;;;;;;;28.83;3.75;;;5.10;99.90;;;;;;5066840;28;20040;-67
2022/02/21 11:49:00;;;;;;;29.27;4.03;;;5.20;99.90;;;;;;5066745;28;20458;-67
2022/02/21 11:51:26;;;;;;;30.67;4.22;;;5.30;99.90;;;;;;5068732;28;20384;-67
2022/02/21 11:53:51;;;;;;;28.58;3.83;;;5.40;99.90;;;;;;5067928;28;20097;-67
2022/02/21 11:56:17;;;;;;;29.80;4.00;;;5.40;99.90;;;;;;5063510;28;20045;-68
2022/02/21 11:58:45;;;;;;;29.42;4.40;;;5.50;99.90;;;;;;5068087;28;20036;-68
2022/02/21 12:01:15;;;;;;;23.77;4.63;;;5.50;99.90;;;;;;5068734;28;20502;-67
2022/02/21 12:03:42;;;;;;;26.42;4.68;;;5.60;99.90;;;;;;5064333;28;20183;-68
2022/02/21 12:06:07;;;;;;;34.50;4.90;;;5.70;99.90;;;;;;5067231;28;20037;-68
2022/02/21 12:08:32;;;;;;;26.83;3.90;;;5.70;99.90;;;;;;5067366;28;20067;-68
2022/02/21 12:11:04;;;;;;;31.50;4.50;;;5.80;99.90;;;;;;5063994;28;20491;-68
2022/02/21 12:13:35;;;;;;;28.75;3.60;;;5.80;99.90;;;;;;5098100;28;20044;-68
2022/02/21 12:16:09;;;;;;;26.95;4.53;;;5.90;99.90;;;;;;5065558;28;20091;-68
2022/02/21 12:18:46;;;;;;;21.92;3.75;;;6.00;99.90;;;;;;5097514;28;20114;-68
2022/02/21 12:21:24;;;;;;;29.73;4.32;;;6.00;99.90;;;;;;5065271;28;20052;-68
2022/02/21 12:23:53;;;;;;;33.88;4.32;;;6.20;99.90;;;;;;5093765;28;20036;-69
2022/02/21 12:26:19;;;;;;;34.80;5.97;;;6.20;99.90;;;;;;5067098;28;20036;-68
2022/02/21 12:29:06;;;;;;;26.13;3.90;;;6.30;99.90;;;;;;5095647;28;20064;-68
2022/02/21 12:31:33;;;;;;;37.97;5.57;;;6.30;99.90;;;;;;5065183;28;21584;-68
2022/02/21 12:33:59;;;;;;;34.95;5.88;;;6.40;99.90;;;;;;5065182;28;20119;-68
2022/02/21 12:36:33;;;;;;;42.90;5.82;;;6.50;99.90;;;;;;5067592;28;20551;-68
2022/02/21 12:38:59;;;;;;;33.90;5.68;;;6.60;99.90;;;;;;5063630;28;20040;-68
2022/02/21 12:41:35;;;;;;;32.90;5.10;;;6.60;99.90;;;;;;5066767;28;20089;-68
2022/02/21 12:44:05;;;;;;;32.08;5.38;;;6.70;99.90;;;;;;5063778;28;20049;-68
2022/02/21 12:46:37;;;;;;;43.22;6.78;;;6.70;99.90;;;;;;5064904;28;20075;-68